CheckWX is a tool to help pilots better visualize weather data.  It is not intended as a substitute for an official pre-flight weather briefing.

20:09:30 UTC

PAAQ TAF
Palmer Buddy Woods Municipal Airport
Palmer, Alaska, USA
PAAQ 161721Z 1618/1718 VRB03KT P6SM SCT070 BKN200 FM171200 36008KT P6SM VCSH SCT020 OVC040

Feb-16@
18:00 UTC

Feb-16 @ 18:00 UTC

Feb-17@
12:00 UTC

Feb-17 @ 12:00 UTC

PAAQ 161721Z 1618/1718 VRB03KT P6SM SCT070 BKN200
Wind
  • Variable at 3 KTS
Cloud Levels
  • Scattered at 7,000' AGL
  • Broken at 20,000' AGL

Feb-17@
12:00 UTC

Feb-17 @ 12:00 UTC

Feb-17@
18:00 UTC

Feb-17 @ 18:00 UTC

FM171200 36008KT P6SM VCSH SCT020 OVC040

From

From Standard forecast or significant change

Wind
  • 360° at 8 KTS
Cloud Levels
  • Scattered at 2,000' AGL
  • Overcast at 4,000' AGL